Terminal Aerodrome Forecast
Issued by NWS Houston/Galveston, TX

Home | Current Version | Previous Version | Text Only | Print | Product List | Glossary On
Versions: 1 2 3 4 5 6 7 8 9 10 11 12 13 14 15 16 17 18 19 20 21 22 23 24 25 26 27 28 29 30 31 32 33 34 35 36 37 38 39 40 41 42 43 44
000
FTUS44 KHGX 181734
TAFGLS
TAF
KGLS 181734Z 1818/1918 VRB06KT 6SM BR VCSH SCT015 BKN035 BKN250
      TEMPO 1818/1822 VRB12KT 1SM +TSRA BKN015CB BKN030
     FM182300 VRB06KT P6SM SCT025 BKN080 BKN250
     FM190700 VRB05KT P6SM VCSH SCT010 BKN250
     FM191200 12007KT P6SM VCTS SCT015 BKN025CB
      TEMPO 1912/1916 VRB15KT 3SM TSRA BKN015CB=

USA.gov is the U.S. government's official web portal to all federal, state and local government web resources and services.